Hier das METAR für die 16 wichtigsten Deutschen Flughäfen.
(dauert ein wenig.... ich muss laden.....)

ODER
METAR nach ICAO Code suchen

Berlin - Schönefeld

EDDB

METAR
EDDB 020450Z 19003KT 150V260 CAVOK 14/12 Q1023 NOSIG
EDDBMETAR lang
Berlin-Schoenefeld, Germany (EDDB) 52-23N 013-31E 50M
Jul 02, 2022 - 12:50 AM EDT / 2022.07.02 0450 UTC
Wind: from the S (190 degrees) at 3 MPH (3 KT) (direction variable):0
Visibility: greater than 7 mile(s):0
Temperature: 57 F (14 C)
Dew Point: 53 F (12 C)
Relative Humidity: 87%
Pressure (altimeter): 30.21 in. Hg (1023 hPa)
ob: EDDB 020450Z 19003KT 150V260 CAVOK 14/12 Q1023 NOSIG
cycle: 5

Dresden

EDDC

METAR
EDDC 020450Z AUTO 22004KT CAVOK 14/11 Q1024 NOSIG
EDDCMETAR lang
Dresden-Klotzsche, Germany (EDDC) 51-08N 013-45E 232M
Jul 02, 2022 - 12:50 AM EDT / 2022.07.02 0450 UTC
Wind: from the SW (220 degrees) at 5 MPH (4 KT):0
Visibility: greater than 7 mile(s):0
Temperature: 57 F (14 C)
Dew Point: 51 F (11 C)
Relative Humidity: 82%
Pressure (altimeter): 30.24 in. Hg (1024 hPa)
ob: EDDC 020450Z AUTO 22004KT CAVOK 14/11 Q1024 NOSIG
cycle: 5

Erfurt

EDDE

METAR
EDDE 020450Z AUTO 19007KT CAVOK 14/11 Q1024 NOSIG
EDDEMETAR lang
Erfurt-Bindersleben, Germany (EDDE) 50-59N 010-58E 322M
Jul 02, 2022 - 12:50 AM EDT / 2022.07.02 0450 UTC
Wind: from the S (190 degrees) at 8 MPH (7 KT):0
Visibility: greater than 7 mile(s):0
Temperature: 57 F (14 C)
Dew Point: 51 F (11 C)
Relative Humidity: 82%
Pressure (altimeter): 30.24 in. Hg (1024 hPa)
ob: EDDE 020450Z AUTO 19007KT CAVOK 14/11 Q1024 NOSIG
cycle: 5

Frankfurt a. Main

EDDF

METAR
EDDF 020450Z 01004KT CAVOK 14/12 Q1023 NOSIG
EDDFMETAR lang
Frankfurt / M-Flughafen, Germany (EDDF) 50-03N 008-36E 113M
Jul 02, 2022 - 12:50 AM EDT / 2022.07.02 0450 UTC
Wind: from the N (010 degrees) at 5 MPH (4 KT):0
Visibility: greater than 7 mile(s):0
Temperature: 57 F (14 C)
Dew Point: 53 F (12 C)
Relative Humidity: 87%
Pressure (altimeter): 30.21 in. Hg (1023 hPa)
ob: EDDF 020450Z 01004KT CAVOK 14/12 Q1023 NOSIG
cycle: 5

Münster Osnabrück

EDDG

METAR
EDDG 020450Z 13003KT 100V160 CAVOK 13/10 Q1022 NOSIG
EDDGMETAR lang
Muenster / Osnabrueck, Germany (EDDG) 52-08N 007-42E 53M
Jul 02, 2022 - 12:50 AM EDT / 2022.07.02 0450 UTC
Wind: from the SE (130 degrees) at 3 MPH (3 KT) (direction variable):0
Visibility: greater than 7 mile(s):0
Temperature: 55 F (13 C)
Dew Point: 50 F (10 C)
Relative Humidity: 81%
Pressure (altimeter): 30.18 in. Hg (1022 hPa)
ob: EDDG 020450Z 13003KT 100V160 CAVOK 13/10 Q1022 NOSIG
cycle: 5

Hamburg

EDDH

METAR
EDDH 020450Z AUTO 21004KT 190V260 CAVOK 14/12 Q1021 BECMG 22010KT
EDDHMETAR lang
Hamburg-Fuhlsbuettel, Germany (EDDH) 53-38N 010-00E 15M
Jul 02, 2022 - 12:50 AM EDT / 2022.07.02 0450 UTC
Wind: from the SSW (210 degrees) at 5 MPH (4 KT) (direction variable):0
Visibility: greater than 7 mile(s):0
Temperature: 57 F (14 C)
Dew Point: 53 F (12 C)
Relative Humidity: 87%
Pressure (altimeter): 30.15 in. Hg (1021 hPa)
ob: EDDH 020450Z AUTO 21004KT 190V260 CAVOK 14/12 Q1021 BECMG 22010KT
cycle: 5

Köln - Bonn

EDDK

METAR
EDDK 020450Z AUTO VRB02KT CAVOK 11/10 Q1023 BECMG 15006KT
EDDKMETAR lang
Koeln / Bonn, Germany (EDDK) 50-52N 007-10E 100M
Jul 02, 2022 - 12:50 AM EDT / 2022.07.02 0450 UTC
Wind: Variable at 2 MPH (2 KT):0
Visibility: greater than 7 mile(s):0
Temperature: 51 F (11 C)
Dew Point: 50 F (10 C)
Relative Humidity: 93%
Pressure (altimeter): 30.21 in. Hg (1023 hPa)
ob: EDDK 020450Z AUTO VRB02KT CAVOK 11/10 Q1023 BECMG 15006KT
cycle: 5

Düsseldorf

EDDL

METAR
EDDL 020450Z AUTO 15009KT CAVOK 14/10 Q1022 NOSIG
EDDLMETAR lang
Duesseldorf, Germany (EDDL) 51-18N 006-46E 41M
Jul 02, 2022 - 12:50 AM EDT / 2022.07.02 0450 UTC
Wind: from the SSE (150 degrees) at 10 MPH (9 KT):0
Visibility: greater than 7 mile(s):0
Temperature: 57 F (14 C)
Dew Point: 50 F (10 C)
Relative Humidity: 76%
Pressure (altimeter): 30.18 in. Hg (1022 hPa)
ob: EDDL 020450Z AUTO 15009KT CAVOK 14/10 Q1022 NOSIG
cycle: 5

München

EDDM

METAR
EDDM 020450Z AUTO 07004KT 040V100 0300 R08L/0400N R08R/0400U FG VV002 09/09 Q1025 NOSIG
EDDMMETAR lang
Munchen, Germany (EDDM) 48-21N 011-47E
Jul 02, 2022 - 12:50 AM EDT / 2022.07.02 0450 UTC
Wind: from the ENE (070 degrees) at 5 MPH (4 KT) (direction variable):0
Visibility: less than 1 mile:0
Sky conditions: obscured
Weather: fog
Temperature: 48 F (9 C)
Dew Point: 48 F (9 C)
Relative Humidity: 100%
Pressure (altimeter): 30.27 in. Hg (1025 hPa)
ob: EDDM 020450Z AUTO 07004KT 040V100 0300 R08L/0400N R08R/0400U FG VV002 09/09 Q1025 NOSIG
cycle: 5

Nürnberg

EDDN

METAR
EDDN 020450Z AUTO 10004KT CAVOK 12/10 Q1025 NOSIG
EDDNMETAR lang
Nuernberg, Germany (EDDN) 49-30N 011-03E 318M
Jul 02, 2022 - 12:50 AM EDT / 2022.07.02 0450 UTC
Wind: from the E (100 degrees) at 5 MPH (4 KT):0
Visibility: greater than 7 mile(s):0
Temperature: 53 F (12 C)
Dew Point: 50 F (10 C)
Relative Humidity: 87%
Pressure (altimeter): 30.27 in. Hg (1025 hPa)
ob: EDDN 020450Z AUTO 10004KT CAVOK 12/10 Q1025 NOSIG
cycle: 5

Leipzig - Halle

EDDP

METAR
EDDP 020450Z 18005KT CAVOK 15/13 Q1024 NOSIG
EDDPMETAR lang
Leipzig-Schkeuditz, Germany (EDDP) 51-25N 012-14E 149M
Jul 02, 2022 - 12:50 AM EDT / 2022.07.02 0450 UTC
Wind: from the S (180 degrees) at 6 MPH (5 KT):0
Visibility: greater than 7 mile(s):0
Temperature: 59 F (15 C)
Dew Point: 55 F (13 C)
Relative Humidity: 87%
Pressure (altimeter): 30.24 in. Hg (1024 hPa)
ob: EDDP 020450Z 18005KT CAVOK 15/13 Q1024 NOSIG
cycle: 5

Saarbrücken

EDDR

METAR
EDDR 020450Z AUTO 07003KT CAVOK 14/09 Q1023 NOSIG
EDDRMETAR lang
Saarbruecken / Ensheim, Germany (EDDR) 49-13N 007-07E 320M
Jul 02, 2022 - 12:50 AM EDT / 2022.07.02 0450 UTC
Wind: from the ENE (070 degrees) at 3 MPH (3 KT):0
Visibility: greater than 7 mile(s):0
Temperature: 57 F (14 C)
Dew Point: 48 F (9 C)
Relative Humidity: 71%
Pressure (altimeter): 30.21 in. Hg (1023 hPa)
ob: EDDR 020450Z AUTO 07003KT CAVOK 14/09 Q1023 NOSIG
cycle: 5

Stuttgart

EDDS

METAR
EDDS 020450Z AUTO VRB01KT CAVOK 14/12 Q1024 NOSIG
EDDSMETAR lang
Stuttgart-Echterdingen, Germany (EDDS) 48-41N 009-13E 391M
Jul 02, 2022 - 12:50 AM EDT / 2022.07.02 0450 UTC
Wind: Variable at 1 MPH (1 KT):0
Visibility: greater than 7 mile(s):0
Temperature: 57 F (14 C)
Dew Point: 53 F (12 C)
Relative Humidity: 87%
Pressure (altimeter): 30.24 in. Hg (1024 hPa)
ob: EDDS 020450Z AUTO VRB01KT CAVOK 14/12 Q1024 NOSIG
cycle: 5

Berlin - Tegel

EDDT

METAR
EDDT 090650Z 09006KT 050V120 3000 BR OVC003 06/05 Q1027
EDDTMETAR lang
Berlin-Tegel, Germany (EDDT) 52-34N 013-19E 37M
Nov 09, 2020 - 01:50 AM EST / 2020.11.09 0650 UTC
Wind: from the E (090 degrees) at 7 MPH (6 KT) (direction variable):0
Visibility: 1 mile(s):0
Sky conditions: overcast
Weather: mist
Temperature: 42 F (6 C)
Dew Point: 41 F (5 C)
Relative Humidity: 93%
Pressure (altimeter): 30.33 in. Hg (1027 hPa)
ob: EDDT 090650Z 09006KT 050V120 3000 BR OVC003 06/05 Q1027
cycle: 7

Hannover

EDDV

METAR
EDDV 020450Z AUTO VRB02KT CAVOK 15/10 Q1023 BECMG 20006KT
EDDVMETAR lang
Hannover, Germany (EDDV) 52-28N 009-41E 59M
Jul 02, 2022 - 12:50 AM EDT / 2022.07.02 0450 UTC
Wind: Variable at 2 MPH (2 KT):0
Visibility: greater than 7 mile(s):0
Temperature: 59 F (15 C)
Dew Point: 50 F (10 C)
Relative Humidity: 72%
Pressure (altimeter): 30.21 in. Hg (1023 hPa)
ob: EDDV 020450Z AUTO VRB02KT CAVOK 15/10 Q1023 BECMG 20006KT
cycle: 5

Bremen

EDDW

METAR
EDDW 020450Z AUTO 20005KT 130V240 CAVOK 14/11 Q1022 BECMG 20008KT
EDDWMETAR lang
Bremen, Germany (EDDW) 53-03N 008-48E 5M
Jul 02, 2022 - 12:50 AM EDT / 2022.07.02 0450 UTC
Wind: from the SSW (200 degrees) at 6 MPH (5 KT) (direction variable):0
Visibility: greater than 7 mile(s):0
Temperature: 57 F (14 C)
Dew Point: 51 F (11 C)
Relative Humidity: 82%
Pressure (altimeter): 30.18 in. Hg (1022 hPa)
ob: EDDW 020450Z AUTO 20005KT 130V240 CAVOK 14/11 Q1022 BECMG 20008KT
cycle: 5